createdAt,value
2018-09-06T00:00:07.012Z,16.5
2018-09-06T00:01:09.117Z,16.5
2018-09-06T00:02:11.214Z,16.4
2018-09-06T00:03:13.307Z,16.5
2018-09-06T00:04:15.803Z,16.5
2018-09-06T00:05:17.916Z,16.5
2018-09-06T00:06:20.017Z,16.4
2018-09-06T00:07:22.428Z,16.5
2018-09-06T00:08:25.306Z,16.4
2018-09-06T00:09:27.792Z,16.4
2018-09-06T00:10:29.894Z,16.4
2018-09-06T00:11:32.293Z,16.4
2018-09-06T00:12:34.383Z,16.4
2018-09-06T00:13:36.774Z,16.4
2018-09-06T00:14:38.882Z,16.4
2018-09-06T00:15:40.977Z,16.4
2018-09-06T00:16:43.090Z,16.4
2018-09-06T00:17:45.187Z,16.4
2018-09-06T00:18:47.288Z,16.4
2018-09-06T00:19:49.384Z,16.4
2018-09-06T00:20:51.503Z,16.5
2018-09-06T00:21:53.889Z,16.4
2018-09-06T00:22:55.994Z,16.4
2018-09-06T00:23:58.104Z,16.3
2018-09-06T00:25:00.770Z,16.3
2018-09-06T00:26:02.890Z,16.4
2018-09-06T00:27:04.989Z,16.4
2018-09-06T00:28:07.097Z,16.4
2018-09-06T00:29:09.888Z,16.3
2018-09-06T00:30:11.997Z,16.3
2018-09-06T00:31:14.387Z,16.2
2018-09-06T00:32:16.774Z,16.3
2018-09-06T00:33:18.886Z,16.3
2018-09-06T00:34:21.268Z,16.3
2018-09-06T00:35:23.372Z,16.3
2018-09-06T00:36:25.490Z,16.2
2018-09-06T00:37:27.593Z,16.2
2018-09-06T00:38:29.689Z,16.3
2018-09-06T00:39:32.083Z,16.2
2018-09-06T00:40:34.482Z,16.3
2018-09-06T00:41:36.591Z,16.2
2018-09-06T00:42:38.968Z,16.2
2018-09-06T00:43:41.074Z,16.2
2018-09-06T00:44:43.186Z,16.1
2018-09-06T00:45:45.274Z,16.1
2018-09-06T00:46:47.380Z,16.1
2018-09-06T00:47:49.488Z,16.1
2018-09-06T00:48:51.630Z,16.1
2018-09-06T00:49:53.696Z,16.1
2018-09-06T00:50:55.795Z,16.1
2018-09-06T00:51:57.899Z,16
2018-09-06T00:52:59.990Z,16
2018-09-06T00:54:02.118Z,16
2018-09-06T00:55:04.598Z,16.1
2018-09-06T00:56:06.712Z,16.1
2018-09-06T00:57:08.824Z,16.1
2018-09-06T00:58:10.918Z,16
2018-09-06T00:59:13.425Z,16
2018-09-06T01:00:15.521Z,16
2018-09-06T01:01:17.626Z,16
2018-09-06T01:02:19.712Z,15.9
2018-09-06T01:03:21.823Z,16
2018-09-06T01:04:23.923Z,16
2018-09-06T01:05:26.021Z,16
2018-09-06T01:06:28.138Z,16
2018-09-06T01:07:30.523Z,16
2018-09-06T01:08:32.627Z,16
2018-09-06T01:09:34.744Z,16
2018-09-06T01:10:36.849Z,16.1
2018-09-06T01:11:39.233Z,16.1
2018-09-06T01:12:41.733Z,16
2018-09-06T01:13:43.823Z,16
2018-09-06T01:14:45.921Z,16
2018-09-06T01:15:48.040Z,15.9
2018-09-06T01:16:50.142Z,15.8
2018-09-06T01:17:52.255Z,15.9
2018-09-06T01:18:54.355Z,15.9
2018-09-06T01:19:56.467Z,15.9
2018-09-06T01:20:58.965Z,15.9
2018-09-06T01:22:01.060Z,15.8
2018-09-06T01:23:03.183Z,15.9
2018-09-06T01:24:05.586Z,15.9
2018-09-06T01:25:07.683Z,15.9
2018-09-06T01:26:09.776Z,16
2018-09-06T01:27:11.894Z,16
2018-09-06T01:28:14.293Z,16
2018-09-06T01:29:17.094Z,15.9
2018-09-06T01:30:19.208Z,15.9
2018-09-06T01:31:21.297Z,15.9
2018-09-06T01:32:23.418Z,15.9
2018-09-06T01:33:25.808Z,15.9
2018-09-06T01:34:27.917Z,15.9
2018-09-06T01:35:30.007Z,15.9
2018-09-06T01:36:32.120Z,15.9
2018-09-06T01:37:34.222Z,15.8
2018-09-06T01:38:36.383Z,15.9
2018-09-06T01:39:38.733Z,15.9
2018-09-06T01:40:40.822Z,15.9
2018-09-06T01:41:42.924Z,15.9
2018-09-06T01:42:45.036Z,15.9
2018-09-06T01:43:47.138Z,15.8
2018-09-06T01:44:49.520Z,15.8
2018-09-06T01:45:51.627Z,15.8
2018-09-06T01:46:54.013Z,15.8
2018-09-06T01:47:56.116Z,15.8
2018-09-06T01:48:58.237Z,15.8
2018-09-06T01:50:00.346Z,15.9
2018-09-06T01:51:02.442Z,15.8
2018-09-06T01:52:04.554Z,15.8
2018-09-06T01:53:06.651Z,15.9
2018-09-06T01:54:09.038Z,15.9
2018-09-06T01:55:11.151Z,15.9
2018-09-06T01:56:13.253Z,15.9
2018-09-06T01:57:15.356Z,15.8
2018-09-06T01:58:17.767Z,15.9
2018-09-06T01:59:20.279Z,15.8
2018-09-06T02:00:22.367Z,15.8
2018-09-06T02:01:24.476Z,15.9
2018-09-06T02:02:26.586Z,15.9
2018-09-06T02:03:28.690Z,15.9
2018-09-06T02:04:30.792Z,15.9
2018-09-06T02:05:32.888Z,15.8
2018-09-06T02:06:34.987Z,15.8
2018-09-06T02:07:37.371Z,15.8
2018-09-06T02:08:39.489Z,15.8
2018-09-06T02:09:41.980Z,15.8
2018-09-06T02:10:44.086Z,15.8
2018-09-06T02:11:46.198Z,15.9
2018-09-06T02:12:48.287Z,15.8
2018-09-06T02:13:50.403Z,15.8
2018-09-06T02:14:52.506Z,15.8
2018-09-06T02:15:54.889Z,15.8
2018-09-06T02:16:56.994Z,15.8
2018-09-06T02:17:59.101Z,15.8
2018-09-06T02:19:01.200Z,15.8
2018-09-06T02:20:03.315Z,15.8
2018-09-06T02:21:05.417Z,15.8
2018-09-06T02:22:07.515Z,15.8
2018-09-06T02:23:09.907Z,15.8
2018-09-06T02:24:12.620Z,15.8
2018-09-06T02:25:14.709Z,15.8
2018-09-06T02:26:16.815Z,15.8
2018-09-06T02:27:18.929Z,15.8
2018-09-06T02:28:21.024Z,15.8
2018-09-06T02:29:23.139Z,15.8
2018-09-06T02:30:25.244Z,15.8
2018-09-06T02:31:27.346Z,15.8
2018-09-06T02:32:29.438Z,15.8
2018-09-06T02:33:31.842Z,15.8
2018-09-06T02:34:33.955Z,15.8
2018-09-06T02:35:36.068Z,15.9
2018-09-06T02:36:38.457Z,15.8
2018-09-06T02:37:41.885Z,15.8
2018-09-06T02:38:43.980Z,15.8
2018-09-06T02:39:46.538Z,15.8
2018-09-06T02:40:49.018Z,15.9
2018-09-06T02:41:51.140Z,15.9
2018-09-06T02:42:53.229Z,15.9
2018-09-06T02:43:55.333Z,15.9
2018-09-06T02:44:57.741Z,15.8
2018-09-06T02:45:59.837Z,15.8
2018-09-06T02:47:02.232Z,15.8
2018-09-06T02:48:04.342Z,15.8
2018-09-06T02:49:06.437Z,15.8
2018-09-06T02:50:08.546Z,15.8
2018-09-06T02:51:10.666Z,15.9
2018-09-06T02:52:13.119Z,15.9
2018-09-06T02:53:15.190Z,15.9
2018-09-06T02:54:17.304Z,15.8
2018-09-06T02:55:19.792Z,15.8
2018-09-06T02:56:22.271Z,15.9
2018-09-06T02:57:24.391Z,15.8
2018-09-06T02:58:26.801Z,15.8
2018-09-06T02:59:29.485Z,15.9
2018-09-06T03:00:31.988Z,15.8
2018-09-06T03:01:34.091Z,15.9
2018-09-06T03:02:36.503Z,15.9
2018-09-06T03:03:38.614Z,15.9
2018-09-06T03:04:41.002Z,15.8
2018-09-06T03:05:43.096Z,15.9
2018-09-06T03:06:45.211Z,15.9
2018-09-06T03:07:47.304Z,15.9
2018-09-06T03:08:49.408Z,15.9
2018-09-06T03:09:51.827Z,15.9
2018-09-06T03:10:53.917Z,15.9
2018-09-06T03:11:56.030Z,15.9
2018-09-06T03:12:58.136Z,15.9
2018-09-06T03:14:00.627Z,15.9
2018-09-06T03:15:03.108Z,15.9
2018-09-06T03:16:06.215Z,15.9
2018-09-06T03:17:08.313Z,15.9
2018-09-06T03:18:10.706Z,15.8
2018-09-06T03:19:12.834Z,15.8
2018-09-06T03:20:14.926Z,15.9
2018-09-06T03:21:17.036Z,15.9
2018-09-06T03:22:19.436Z,15.8
2018-09-06T03:23:21.536Z,15.8
2018-09-06T03:24:23.639Z,15.9
2018-09-06T03:25:25.741Z,15.9
2018-09-06T03:26:27.831Z,15.8
2018-09-06T03:27:29.934Z,15.8
2018-09-06T03:28:32.451Z,15.9
2018-09-06T03:29:34.552Z,15.8
2018-09-06T03:30:36.657Z,15.9
2018-09-06T03:31:38.782Z,15.9
2018-09-06T03:32:41.196Z,15.9
2018-09-06T03:33:43.298Z,15.9
2018-09-06T03:34:45.409Z,15.8
2018-09-06T03:35:47.524Z,15.8
2018-09-06T03:36:49.902Z,15.8
2018-09-06T03:37:52.013Z,15.8
2018-09-06T03:38:54.412Z,15.9
2018-09-06T03:39:56.499Z,15.9
2018-09-06T03:40:58.608Z,15.9
2018-09-06T03:42:01.103Z,15.9
2018-09-06T03:43:03.591Z,15.8
2018-09-06T03:44:06.108Z,15.8
2018-09-06T03:45:08.496Z,15.8
2018-09-06T03:46:11.573Z,15.8
2018-09-06T03:47:13.674Z,15.8
2018-09-06T03:48:15.793Z,15.8
2018-09-06T03:49:17.899Z,15.9
2018-09-06T03:50:19.993Z,15.9
2018-09-06T03:51:22.093Z,15.9
2018-09-06T03:52:24.214Z,15.9
2018-09-06T03:53:26.306Z,15.9
2018-09-06T03:54:28.412Z,15.9
2018-09-06T03:55:30.523Z,15.9
2018-09-06T03:56:32.917Z,15.9
2018-09-06T03:57:35.013Z,15.8
2018-09-06T03:58:37.127Z,15.8
2018-09-06T03:59:40.187Z,15.8
2018-09-06T04:00:42.615Z,15.9
2018-09-06T04:01:44.699Z,15.9
2018-09-06T04:02:47.095Z,15.9
2018-09-06T04:03:49.186Z,15.9
2018-09-06T04:04:51.304Z,16
2018-09-06T04:05:53.684Z,15.9
2018-09-06T04:06:56.074Z,15.9
2018-09-06T04:07:58.184Z,15.9
2018-09-06T04:09:00.271Z,15.9
2018-09-06T04:10:02.695Z,15.9
2018-09-06T04:11:04.798Z,15.9
2018-09-06T04:12:07.609Z,15.9
2018-09-06T04:13:09.696Z,15.9
2018-09-06T04:14:12.206Z,15.9
2018-09-06T04:15:14.324Z,15.8
2018-09-06T04:16:16.423Z,15.8
2018-09-06T04:17:18.831Z,15.9
2018-09-06T04:18:20.966Z,15.9
2018-09-06T04:19:23.419Z,15.9
2018-09-06T04:20:25.523Z,15.9
2018-09-06T04:21:27.643Z,15.9
2018-09-06T04:22:29.740Z,15.9
2018-09-06T04:23:31.861Z,15.9
2018-09-06T04:24:33.973Z,15.9
2018-09-06T04:25:36.457Z,15.9
2018-09-06T04:26:38.571Z,15.9
2018-09-06T04:27:40.968Z,15.9
2018-09-06T04:28:43.061Z,15.9
2018-09-06T04:29:45.163Z,15.9
2018-09-06T04:30:47.274Z,15.9
2018-09-06T04:31:49.375Z,15.9
2018-09-06T04:32:51.487Z,15.9
2018-09-06T04:33:53.600Z,15.9
2018-09-06T04:34:55.690Z,15.9
2018-09-06T04:35:57.800Z,15.9
2018-09-06T04:36:59.911Z,16
2018-09-06T04:38:02.011Z,16
2018-09-06T04:39:04.115Z,16
2018-09-06T04:40:06.239Z,16
2018-09-06T04:41:08.330Z,16
2018-09-06T04:42:10.735Z,16
2018-09-06T04:43:12.831Z,16
2018-09-06T04:44:14.941Z,16
2018-09-06T04:45:17.046Z,16
2018-09-06T04:46:19.166Z,16
2018-09-06T04:47:21.272Z,16
2018-09-06T04:48:23.379Z,16
2018-09-06T04:49:25.782Z,16
2018-09-06T04:50:28.466Z,16
2018-09-06T04:51:30.572Z,16
2018-09-06T04:52:32.674Z,16
2018-09-06T04:53:34.789Z,16
2018-09-06T04:54:36.876Z,16.1
2018-09-06T04:55:39.374Z,16.1
2018-09-06T04:56:41.475Z,16
2018-09-06T04:57:43.868Z,16.1
2018-09-06T04:58:45.984Z,16.1
2018-09-06T04:59:48.080Z,16.1
2018-09-06T05:00:50.583Z,16.1
2018-09-06T05:01:52.988Z,16
2018-09-06T05:02:55.098Z,16.1
2018-09-06T05:03:57.871Z,16.1
2018-09-06T05:04:59.971Z,16.1
2018-09-06T05:06:02.083Z,16.1
2018-09-06T05:07:04.778Z,16.1
2018-09-06T05:08:06.873Z,16.1
2018-09-06T05:09:08.977Z,16.1
2018-09-06T05:10:11.382Z,16.1
2018-09-06T05:11:13.467Z,16.1
2018-09-06T05:12:15.578Z,16
2018-09-06T05:13:17.694Z,16.1
2018-09-06T05:14:20.094Z,16.1
2018-09-06T05:15:22.610Z,16.1
2018-09-06T05:16:24.707Z,16.1
2018-09-06T05:17:26.812Z,16.2
2018-09-06T05:18:28.907Z,16.2
2018-09-06T05:19:31.028Z,16.2
2018-09-06T05:20:33.413Z,16.2
2018-09-06T05:21:35.521Z,16.2
2018-09-06T05:22:37.917Z,16.2
2018-09-06T05:23:40.016Z,16.1
2018-09-06T05:24:42.119Z,16.2
2018-09-06T05:25:44.227Z,16.2
2018-09-06T05:26:46.740Z,16.2
2018-09-06T05:27:48.835Z,16.2
2018-09-06T05:28:50.946Z,16.2
2018-09-06T05:29:53.054Z,16.2
2018-09-06T05:30:55.557Z,16.3
2018-09-06T05:31:57.571Z,16.3
2018-09-06T05:32:59.957Z,16.2
2018-09-06T05:34:02.060Z,16.2
2018-09-06T05:35:04.502Z,16.3
2018-09-06T05:36:06.629Z,16.2
2018-09-06T05:37:08.687Z,16.3
2018-09-06T05:38:10.798Z,16.3
2018-09-06T05:39:13.512Z,16.3
2018-09-06T05:40:15.624Z,16.4
2018-09-06T05:41:18.018Z,16.4
2018-09-06T05:42:20.436Z,16.4
2018-09-06T05:43:22.546Z,16.4
2018-09-06T05:44:24.640Z,16.4
2018-09-06T05:45:26.755Z,16.4
2018-09-06T05:46:29.541Z,16.5
2018-09-06T05:47:32.287Z,16.4
2018-09-06T05:48:34.297Z,16.4
2018-09-06T05:49:36.398Z,16.4
2018-09-06T05:50:38.501Z,16.4
2018-09-06T05:51:40.606Z,16.4
2018-09-06T05:52:43.007Z,16.5
2018-09-06T05:53:45.408Z,16.5
2018-09-06T05:54:47.818Z,16.5
2018-09-06T05:55:49.930Z,16.5
2018-09-06T05:56:52.019Z,16.5
2018-09-06T05:57:54.561Z,16.5
2018-09-06T05:58:56.991Z,16.5
2018-09-06T05:59:59.193Z,16.5
2018-09-06T06:01:01.195Z,16.5
2018-09-06T06:02:03.305Z,16.6
2018-09-06T06:03:05.406Z,16.6
2018-09-06T06:04:07.792Z,16.6
2018-09-06T06:05:09.922Z,16.6
2018-09-06T06:06:12.296Z,16.6
2018-09-06T06:07:14.788Z,16.6
2018-09-06T06:08:17.206Z,16.6
2018-09-06T06:09:19.321Z,16.6
2018-09-06T06:10:21.418Z,16.7
2018-09-06T06:11:23.533Z,16.6
2018-09-06T06:12:25.638Z,16.7
2018-09-06T06:13:27.741Z,16.6
2018-09-06T06:14:29.856Z,16.7
2018-09-06T06:15:32.355Z,16.7
2018-09-06T06:16:34.455Z,16.8
2018-09-06T06:17:36.568Z,16.8
2018-09-06T06:18:39.056Z,16.8
2018-09-06T06:19:42.150Z,16.9
2018-09-06T06:20:44.249Z,16.8
2018-09-06T06:21:46.374Z,16.7
2018-09-06T06:22:48.471Z,16.8
2018-09-06T06:23:50.865Z,16.8
2018-09-06T06:24:52.960Z,16.8
2018-09-06T06:25:55.095Z,16.9
2018-09-06T06:26:57.184Z,16.9
2018-09-06T06:27:59.292Z,16.9
2018-09-06T06:29:02.469Z,16.9
2018-09-06T06:30:04.559Z,16.9
2018-09-06T06:31:06.964Z,16.9
2018-09-06T06:32:09.554Z,16.9
2018-09-06T06:33:11.634Z,17
2018-09-06T06:34:14.035Z,17
2018-09-06T06:35:16.146Z,17
2018-09-06T06:36:18.248Z,17
2018-09-06T06:37:20.347Z,17
2018-09-06T06:38:22.865Z,17
2018-09-06T06:39:24.960Z,17.1
2018-09-06T06:40:27.062Z,17
2018-09-06T06:41:29.177Z,17.1
2018-09-06T06:42:31.296Z,17.2
2018-09-06T06:43:33.964Z,17.2
2018-09-06T06:44:36.462Z,17.3
2018-09-06T06:45:38.879Z,17.2
2018-09-06T06:46:40.985Z,17.4
2018-09-06T06:47:43.100Z,17.4
2018-09-06T06:48:45.205Z,17.4
2018-09-06T06:49:47.307Z,17.3
2018-09-06T06:50:49.729Z,17.4
2018-09-06T06:51:51.831Z,17.4
2018-09-06T06:52:54.264Z,17.4
2018-09-06T06:53:56.383Z,17.4
2018-09-06T06:54:58.769Z,17.4
2018-09-06T06:56:00.878Z,17.5
2018-09-06T06:57:03.280Z,17.5
2018-09-06T06:58:05.399Z,17.6
2018-09-06T06:59:07.775Z,17.6
2018-09-06T07:00:10.182Z,17.6
2018-09-06T07:01:12.580Z,17.6
2018-09-06T07:02:14.679Z,17.5
2018-09-06T07:03:16.803Z,17.8
2018-09-06T07:04:19.425Z,17.8
2018-09-06T07:05:21.473Z,17.8
2018-09-06T07:06:23.959Z,17.8
2018-09-06T07:07:26.075Z,17.9
2018-09-06T07:08:28.175Z,17.9
2018-09-06T07:09:30.289Z,18
2018-09-06T07:10:32.688Z,18
2018-09-06T07:11:34.783Z,18
2018-09-06T07:12:37.578Z,18
2018-09-06T07:13:39.686Z,18.1
2018-09-06T07:14:41.794Z,18.1
2018-09-06T07:15:43.898Z,18.1
2018-09-06T07:16:46.019Z,18.2
2018-09-06T07:17:48.130Z,18
2018-09-06T07:18:50.637Z,18.2
2018-09-06T07:19:52.776Z,18.3
2018-09-06T07:20:54.880Z,18.4
2018-09-06T07:21:56.995Z,18.3
2018-09-06T07:22:59.123Z,18.3
2018-09-06T07:24:01.232Z,18.3
2018-09-06T07:25:03.828Z,18.2
2018-09-06T07:26:06.196Z,18
2018-09-06T07:27:08.322Z,18.2
2018-09-06T07:28:10.880Z,18.3
2018-09-06T07:29:12.989Z,18.4
2018-09-06T07:30:15.109Z,18.4
2018-09-06T07:31:17.221Z,18.4
2018-09-06T07:32:19.349Z,18.6
2018-09-06T07:33:21.444Z,18.6
2018-09-06T07:34:23.566Z,18.5
2018-09-06T07:35:26.113Z,18.7
2018-09-06T07:36:28.229Z,18.7
2018-09-06T07:37:30.631Z,18.7
2018-09-06T07:38:33.050Z,18.9
2018-09-06T07:39:35.161Z,19
2018-09-06T07:40:37.598Z,19.1
2018-09-06T07:41:39.697Z,19
2018-09-06T07:42:41.810Z,19.1
2018-09-06T07:43:43.925Z,18.9
2018-09-06T07:44:46.027Z,19.2
2018-09-06T07:45:48.146Z,19.1
2018-09-06T07:46:50.351Z,19.1
2018-09-06T07:47:52.355Z,19
2018-09-06T07:48:54.756Z,19
2018-09-06T07:49:56.892Z,19
2018-09-06T07:50:58.998Z,19.1
2018-09-06T07:52:01.117Z,19.3
2018-09-06T07:53:03.230Z,19.2
2018-09-06T07:54:05.335Z,19.3
2018-09-06T07:55:07.444Z,19.2
2018-09-06T07:56:09.967Z,19.4
2018-09-06T07:57:12.450Z,19.5
2018-09-06T07:58:14.577Z,19.7
2018-09-06T07:59:16.690Z,19.7
2018-09-06T08:00:18.795Z,19.8
2018-09-06T08:01:21.226Z,19.8
2018-09-06T08:02:23.338Z,20
2018-09-06T08:03:25.768Z,20
2018-09-06T08:04:28.266Z,19.7
2018-09-06T08:05:30.392Z,19.9
2018-09-06T08:06:32.511Z,20.2
2018-09-06T08:07:34.627Z,20.3
2018-09-06T08:08:36.751Z,20.3
2018-09-06T08:09:38.852Z,20.3
2018-09-06T08:10:40.972Z,20.5
2018-09-06T08:11:43.090Z,20.5
2018-09-06T08:12:45.486Z,20.5
2018-09-06T08:13:47.584Z,20.3
2018-09-06T08:14:49.714Z,20.6
2018-09-06T08:15:51.826Z,20.7
2018-09-06T08:16:53.947Z,20.6
2018-09-06T08:17:56.043Z,20.7
2018-09-06T08:18:58.392Z,20.9
2018-09-06T08:20:00.334Z,20.7
2018-09-06T08:21:02.448Z,20.8
2018-09-06T08:22:04.565Z,20.9
2018-09-06T08:23:06.690Z,21
2018-09-06T08:24:08.836Z,20.9
2018-09-06T08:25:10.915Z,21.1
2018-09-06T08:26:13.027Z,21.2
2018-09-06T08:27:15.128Z,21
2018-09-06T08:28:17.555Z,20.9
2018-09-06T08:29:20.064Z,21.1
2018-09-06T08:30:22.163Z,21
2018-09-06T08:31:24.824Z,21.1
2018-09-06T08:32:26.894Z,20.7
2018-09-06T08:33:29.290Z,20.8
2018-09-06T08:34:31.416Z,20.9
2018-09-06T08:35:33.919Z,21.3
2018-09-06T08:36:36.042Z,21.3
2018-09-06T08:37:38.143Z,21.5
2018-09-06T08:38:40.274Z,21.3
2018-09-06T08:39:42.373Z,21.3
2018-09-06T08:40:44.490Z,20.9
2018-09-06T08:41:46.612Z,20.5
2018-09-06T08:42:48.716Z,20.9
2018-09-06T08:43:51.136Z,21.1
2018-09-06T08:44:53.245Z,21
2018-09-06T08:45:55.367Z,21
2018-09-06T08:46:57.473Z,20.5
2018-09-06T08:47:59.600Z,20.6
2018-09-06T08:49:01.715Z,20.8
2018-09-06T08:50:03.823Z,21
2018-09-06T08:51:05.960Z,20.9
2018-09-06T08:52:08.578Z,21.2
2018-09-06T08:53:10.928Z,21.2
2018-09-06T08:54:13.041Z,21.3
2018-09-06T08:55:15.161Z,21.2
2018-09-06T08:56:17.280Z,21.4
2018-09-06T08:57:19.394Z,21.9
2018-09-06T08:58:21.572Z,21.8
2018-09-06T08:59:23.644Z,21.8
2018-09-06T09:00:25.771Z,21.7
2018-09-06T09:01:27.873Z,21.7
2018-09-06T09:02:30.034Z,21.5
2018-09-06T09:03:32.104Z,21.6
2018-09-06T09:04:34.253Z,22.1
2018-09-06T09:05:36.356Z,21.9
2018-09-06T09:06:38.784Z,22.1
2018-09-06T09:07:41.017Z,22.2
2018-09-06T09:08:43.447Z,22.5
2018-09-06T09:09:45.952Z,22.5
2018-09-06T09:10:48.064Z,22
2018-09-06T09:11:50.497Z,22
2018-09-06T09:12:52.992Z,21.9
2018-09-06T09:13:55.470Z,22.1
2018-09-06T09:14:57.612Z,22
2018-09-06T09:16:00.039Z,22.2
2018-09-06T09:17:02.477Z,22.5
2018-09-06T09:18:04.607Z,22.4
2018-09-06T09:19:06.732Z,22.3
2018-09-06T09:20:08.832Z,22.5
2018-09-06T09:21:10.970Z,22.5
2018-09-06T09:22:13.202Z,22.7
2018-09-06T09:23:15.193Z,22.7
2018-09-06T09:24:17.319Z,22.8
2018-09-06T09:25:19.420Z,22.8
2018-09-06T09:26:21.842Z,22.9
2018-09-06T09:27:23.974Z,22.9
2018-09-06T09:28:26.092Z,23
2018-09-06T09:29:28.197Z,22.8
2018-09-06T09:30:30.345Z,22.9
2018-09-06T09:31:32.432Z,23.4
2018-09-06T09:32:34.549Z,23.6
2018-09-06T09:33:36.680Z,23.8
2018-09-06T09:34:38.800Z,23.7
2018-09-06T09:35:41.205Z,23.6
2018-09-06T09:36:43.382Z,23.9
2018-09-06T09:37:45.493Z,23.9
2018-09-06T09:38:47.615Z,23.6
2018-09-06T09:39:50.095Z,23.6
2018-09-06T09:40:52.684Z,23.8
2018-09-06T09:41:54.822Z,23.9
2018-09-06T09:42:56.943Z,23.9
2018-09-06T09:43:59.373Z,23.9
2018-09-06T09:45:01.895Z,24
2018-09-06T09:48:08.448Z,23.7
2018-09-06T09:49:10.584Z,24.3
2018-09-06T09:51:15.190Z,24.8
2018-09-06T09:53:20.002Z,24.4
2018-09-06T09:54:22.115Z,24.5
2018-09-06T09:55:24.242Z,24.7
2018-09-06T09:56:26.369Z,24.4
2018-09-06T09:57:28.482Z,24.5
2018-09-06T09:58:30.618Z,24.4
2018-09-06T09:59:33.159Z,24.5
2018-09-06T10:00:35.907Z,24.6
2018-09-06T10:01:38.327Z,24.5
2018-09-06T10:02:40.760Z,24.6
2018-09-06T10:03:43.190Z,24.7
2018-09-06T10:04:45.609Z,24.9
2018-09-06T10:05:48.124Z,25.1
2018-09-06T10:06:50.233Z,24.8
2018-09-06T10:07:52.354Z,24.9
2018-09-06T10:08:54.467Z,24.6
2018-09-06T10:09:56.594Z,24.7
2018-09-06T10:10:59.018Z,24.8
2018-09-06T10:12:01.135Z,24.5
2018-09-06T10:13:03.273Z,24.8
2018-09-06T10:14:05.664Z,24.9
2018-09-06T10:15:07.791Z,24.9
2018-09-06T10:16:09.908Z,24.5
2018-09-06T10:17:12.731Z,24.8
2018-09-06T10:18:14.884Z,24.6
2018-09-06T10:19:16.973Z,25.1
2018-09-06T10:20:19.087Z,25.4
2018-09-06T10:21:21.515Z,25.4
2018-09-06T10:22:23.954Z,25.3
2018-09-06T10:23:26.073Z,25.2
2018-09-06T10:24:28.876Z,25
2018-09-06T10:25:30.994Z,25.1
2018-09-06T10:26:33.125Z,25.3
2018-09-06T10:27:35.579Z,25.3
2018-09-06T10:28:37.839Z,25.1
2018-09-06T10:29:40.147Z,25.1
2018-09-06T10:30:45.012Z,25
2018-09-06T10:31:47.547Z,25.3
2018-09-06T10:32:53.744Z,25.4
2018-09-06T10:33:56.854Z,25.3
2018-09-06T10:35:06.448Z,25.3
2018-09-06T10:36:10.236Z,25.4
2018-09-06T10:37:13.007Z,25.4
2018-09-06T10:38:18.544Z,25.4
2018-09-06T10:39:23.778Z,25.4
2018-09-06T10:40:32.987Z,25.3
2018-09-06T10:41:37.886Z,25.2
2018-09-06T10:42:44.449Z,25.4
2018-09-06T10:43:49.361Z,25.3
2018-09-06T10:44:53.399Z,25.6
2018-09-06T10:46:00.449Z,25.6
2018-09-06T10:47:04.369Z,25.5
2018-09-06T10:48:09.626Z,25.6
2018-09-06T10:49:15.746Z,25.7
2018-09-06T10:50:20.320Z,26
2018-09-06T10:51:26.270Z,26.2
2018-09-06T10:52:31.542Z,26.1
2018-09-06T10:53:38.131Z,25.8
2018-09-06T10:54:44.199Z,25.5
2018-09-06T10:55:49.632Z,25.2
2018-09-06T10:56:54.173Z,25.7
2018-09-06T10:58:00.345Z,25.8
2018-09-06T10:59:05.882Z,25.2
2018-09-06T11:00:11.889Z,25.7
2018-09-06T11:01:18.313Z,26.1
2018-09-06T11:02:25.606Z,26.3
2018-09-06T11:03:30.322Z,26.4
2018-09-06T11:04:34.657Z,26.5
2018-09-06T11:05:40.034Z,26.4
2018-09-06T11:06:46.301Z,26.1
2018-09-06T11:07:50.520Z,26.2
2018-09-06T11:08:56.426Z,26.5
2018-09-06T11:10:01.251Z,26.5
2018-09-06T11:11:06.200Z,27.2
2018-09-06T11:12:11.788Z,27.1
2018-09-06T11:13:15.723Z,26.9
2018-09-06T11:14:21.222Z,26.7
2018-09-06T11:15:26.887Z,26.8
2018-09-06T11:16:33.883Z,26.9
2018-09-06T11:17:41.942Z,26.6
2018-09-06T11:18:47.805Z,26.1
2018-09-06T11:19:55.518Z,26.3
2018-09-06T11:20:59.786Z,26.5
2018-09-06T11:22:07.943Z,26.7
2018-09-06T11:23:12.377Z,27
2018-09-06T11:24:18.578Z,27.1
2018-09-06T11:25:23.458Z,26.9
2018-09-06T11:26:27.972Z,26.8
2018-09-06T11:27:35.344Z,26.8
2018-09-06T11:28:40.277Z,26.5
2018-09-06T11:29:47.420Z,25.8
2018-09-06T11:30:52.950Z,26.2
2018-09-06T11:32:00.416Z,26.2
2018-09-06T11:33:06.822Z,26.6
2018-09-06T11:34:13.688Z,26.8
2018-09-06T11:35:19.099Z,26.2
2018-09-06T11:36:27.325Z,26.2
2018-09-06T11:37:31.801Z,26.5
2018-09-06T11:38:44.008Z,27
2018-09-06T11:39:54.942Z,27.2
2018-09-06T11:41:00.352Z,27.2
2018-09-06T11:42:10.196Z,27.2
2018-09-06T11:43:14.797Z,26.9
2018-09-06T11:44:19.692Z,26.4
2018-09-06T11:45:31.653Z,26.5
2018-09-06T11:46:38.817Z,26.1
2018-09-06T11:47:46.067Z,27
2018-09-06T11:48:55.378Z,27
2018-09-06T11:50:08.253Z,26.6
2018-09-06T11:51:13.772Z,27.2
2018-09-06T11:52:20.292Z,27.1
2018-09-06T11:53:25.873Z,26.9
2018-09-06T11:54:34.389Z,26.4
2018-09-06T11:55:45.600Z,26.2
2018-09-06T11:56:55.644Z,26.3
2018-09-06T11:58:02.234Z,26
2018-09-06T11:59:12.102Z,26
2018-09-06T12:00:21.796Z,26.4
2018-09-06T12:01:27.706Z,26.7
2018-09-06T12:02:31.371Z,27.3
2018-09-06T12:03:37.058Z,27.1
2018-09-06T12:04:42.475Z,27.2
2018-09-06T12:05:52.960Z,27.2
2018-09-06T12:06:57.630Z,27.2
2018-09-06T12:08:05.582Z,27.1
2018-09-06T12:09:10.348Z,26.7
2018-09-06T12:10:16.183Z,26.4
2018-09-06T12:11:23.102Z,26.7
2018-09-06T12:12:29.748Z,26.7
2018-09-06T12:13:36.551Z,26.4
2018-09-06T12:14:46.207Z,26.5
2018-09-06T12:15:57.332Z,26.6
2018-09-06T12:17:03.443Z,27
2018-09-06T12:18:10.928Z,27.3
2018-09-06T12:19:16.124Z,27.3
2018-09-06T12:20:23.274Z,27.7
2018-09-06T12:21:27.473Z,27
2018-09-06T12:22:35.407Z,26.9
2018-09-06T12:23:41.526Z,26.8
2018-09-06T12:24:50.741Z,27.3
2018-09-06T12:25:57.413Z,27.3
2018-09-06T12:27:06.269Z,26.8
2018-09-06T12:28:12.286Z,26.7
2018-09-06T12:29:18.633Z,26.8
2018-09-06T12:30:24.698Z,26.9
2018-09-06T12:31:31.993Z,27
2018-09-06T12:32:38.401Z,27.4
2018-09-06T12:33:46.469Z,27.4
2018-09-06T12:34:51.399Z,27.3
2018-09-06T12:35:58.868Z,27.5
2018-09-06T12:37:03.989Z,27.3
2018-09-06T12:38:12.044Z,27.1
2018-09-06T12:39:17.768Z,26.7
2018-09-06T12:40:24.623Z,26.5
2018-09-06T12:41:33.302Z,26.9
2018-09-06T12:42:41.282Z,27.1
2018-09-06T12:43:47.247Z,27
2018-09-06T12:44:57.000Z,27.1
2018-09-06T12:46:05.939Z,28
2018-09-06T12:47:10.286Z,27.8
2018-09-06T12:48:17.319Z,27.3
2018-09-06T12:49:24.705Z,27.3
2018-09-06T12:50:31.066Z,26.6
2018-09-06T12:51:37.759Z,26.9
2018-09-06T12:52:45.119Z,27
2018-09-06T12:53:55.396Z,26.8
2018-09-06T12:55:02.805Z,26.7
2018-09-06T12:56:19.944Z,26.6
2018-09-06T12:57:24.601Z,26.3
2018-09-06T12:58:33.204Z,26.4
2018-09-06T12:59:40.161Z,26.7
2018-09-06T13:00:51.255Z,26.7
2018-09-06T13:02:01.089Z,26.8
2018-09-06T13:03:06.408Z,26.7
2018-09-06T13:04:13.490Z,26.2
2018-09-06T13:05:17.568Z,26.5
2018-09-06T13:06:28.201Z,26.7
2018-09-06T13:07:32.762Z,27
2018-09-06T13:08:40.167Z,26.9
2018-09-06T13:09:46.462Z,26.8
2018-09-06T13:10:51.772Z,26.9
2018-09-06T13:11:56.793Z,26.4
2018-09-06T13:13:03.505Z,26.8
2018-09-06T13:14:11.302Z,26.5
2018-09-06T13:15:17.366Z,26.4
2018-09-06T13:16:22.513Z,26.3
2018-09-06T13:17:26.932Z,26.3
2018-09-06T13:18:35.656Z,26.1
2018-09-06T13:19:39.812Z,26.3
2018-09-06T13:20:45.237Z,26.4
2018-09-06T13:21:47.732Z,26.2
2018-09-06T13:22:53.667Z,26.3
2018-09-06T13:23:58.185Z,26
2018-09-06T13:25:01.278Z,26
2018-09-06T13:26:05.575Z,25.6
2018-09-06T13:27:08.997Z,25.6
2018-09-06T13:28:12.032Z,25.7
2018-09-06T13:29:14.164Z,25.7
2018-09-06T13:30:16.284Z,25.8
2018-09-06T13:31:18.761Z,25.8
2018-09-06T13:32:20.884Z,25.4
2018-09-06T13:33:22.993Z,25.6
2018-09-06T13:34:25.124Z,25.6
2018-09-06T13:35:27.705Z,25.5
2018-09-06T13:36:29.772Z,25.7
2018-09-06T13:37:31.906Z,25.8
2018-09-06T13:38:34.703Z,25.8
2018-09-06T13:39:37.208Z,25.7
2018-09-06T13:40:39.343Z,26.1
2018-09-06T13:41:41.459Z,26
2018-09-06T13:42:43.579Z,26.3
2018-09-06T13:43:46.005Z,26.4
2018-09-06T13:44:48.111Z,26.3
2018-09-06T13:45:50.235Z,26.2
2018-09-06T13:46:52.360Z,26.4
2018-09-06T13:47:54.486Z,26.1
2018-09-06T13:48:56.595Z,26.1
2018-09-06T13:49:58.734Z,26
2018-09-06T13:51:00.855Z,25.9
2018-09-06T13:52:03.015Z,25.8
2018-09-06T13:53:05.111Z,25.9
2018-09-06T13:54:07.615Z,25.9
2018-09-06T13:55:09.737Z,25.7
2018-09-06T13:56:12.143Z,25.8
2018-09-06T13:57:14.873Z,26
2018-09-06T13:58:17.297Z,26.3
2018-09-06T13:59:19.391Z,26.5
2018-09-06T14:00:21.511Z,26.3
2018-09-06T14:01:23.620Z,26.3
2018-09-06T14:02:25.758Z,26
2018-09-06T14:03:27.885Z,26.1
2018-09-06T14:04:30.003Z,26.1
2018-09-06T14:05:32.128Z,26.1
2018-09-06T14:06:34.260Z,26
2018-09-06T14:07:36.773Z,25.7
2018-09-06T14:08:38.888Z,25.8
2018-09-06T14:09:41.015Z,25.6